Pardubice, Czech Republic

1:15 PM CEST on October 25, 2014 (GMT +0200)
Pardubice | Change Station
CLOSE
Current Station
Airport
Location: Pardubice,
Elevation: 755 ft
Nearby Weather Stations

Elev 755 ft 50.02 °N, 15.74 °E | Updated 15 minutes ago

Overcast
Overcast
45 °F
Feels Like 42 °F
N
5
Wind Variable Wind from East

Today
High -- | Low -- °F
--% Chance of Precip.
Yesterday
High -- | Low -- °F
Precip. -- in
7:34 AM 5:46 PM
Waxing Crescent, 3% visible
Pressure 30.21 in
Visibility 4.3 miles
Clouds Overcast 2100 ft
Windchill 42 °F
Dew Point 41 °F
Humidity 87%
Rainfall 0.00 in
Snow Depth Not available.
UV 1 out of 12
Pollen Not available.
Air Quality Not available.
Flu Activity Not available.
METAR LKPD 251100Z 10004KT 7000 OVC021 07/05 Q1023 NOSIG

More Conditions Fewer Conditions

Pressure 30.21 in
Visibility 4.3 miles
Clouds Overcast 2100 ft
Windchill 42 °F
Dew Point 41 °F
Humidity 87%
Rainfall 0.00 in
Snow Depth Not available.
UV 1 out of 12
Pollen Not available.
Air Quality Not available.
Flu Activity Not available.
METAR LKPD 251100Z 10004KT 7000 OVC021 07/05 Q1023 NOSIG

More Conditions Fewer Conditions

10-Day Weather Forecast

Almanac

Astronomy

Oct. 25, 2014 Rise Set
Actual Time 7:34 AM CEST 5:46 PM CEST
Civil Twilight 7:01 AM CEST 6:19 PM CEST
Nautical Twilight 6:23 AM CEST 6:57 PM CEST
Astronomical Twilight 5:46 AM CEST 7:35 PM CEST
Moon 9:02 AM CEST 6:48 PM CEST
Length of Visible Light 11h 18m
Length of Day
10h 11m
Tomorrow will be 3m 31s shorter.
Waxing Crescent, 3% of the Moon is Illuminated
Today
Waxing Crescent
Oct 30
First Quarter
Nov 6
Full
Nov 14
Last Quarter
Nov 22
New

Yesterday's Extremes

Country Highs Country Lows

Community

WunderPhotos

Upload Photos

1,764,808 photos uploaded!

Nearby

Snow Depth

Not available.

Earthquake Activity

City Distance Mag. Time & Date
No recent earthquake activity has been reported nearby.
Minimum magnitude displayed is 2.5.

Coastal Water Temperatures

Place Temperature
No Stations Reporting

Nearby Weather Stations